English Lake, Indiana
Current Conditions -  °F | °C
As of 7:35 AM on Friday 24 Oct 2014 (Local Time) from KOXI Reporting Station
Overcast Overcast  
Wind Chill: 47°   Ceiling: 2300
Heat Index: 47°   Visibility: 5mi
Dew Point: 44°   Wind: 0mph
Humidity: 90%   Direction: NA
Pressure: 30.07"   Gusts: NA
Location:  41.2283°N, 86.6584°W
Report Text: KOXI 241235Z AUTO 00000KT 5SM OVC023 09/07 A3007 RMK AO1 T00850069
Loading
Personal Weather Stations






























Interactive Weather Map
Tropical Storm Tracking
New forecast layout! Learn more

10-Day Weather Forecast

Advertisements
Track Severe Weather on mobile